Archbald, Pennsylvania
Current Conditions -  °F | °C
As of 1:14 PM on Monday 26 Jan 2015 (Local Time) from KAVP Reporting Station
Light Snow Light Snow  
Wind Chill: -12°   Ceiling: 3000
Heat Index: -6°   Visibility: 2.5mi
Dew Point: -11°   Wind: 10mph
Humidity: 68%   Direction: 60°ENE
Pressure: 29.82"   Gusts: NA
Location:  41.51°N, 75.56°W
Report Text: KAVP 261814Z AUTO 06009KT 2 1/2SM -SN BKN030 OVC036 M06/M11 A2982 RMK AO2 UPB05E07SNB1755E05B07 P0000 T10561106
Loading
Personal Weather Stations






























Interactive Weather Map New forecast layout! Learn more

10-Day Weather Forecast

Advertisements
Track Severe Weather on mobile